createdAt,value
2018-07-02T00:00:31.114Z,15.6
2018-07-02T00:01:32.733Z,15.6
2018-07-02T00:02:34.344Z,15.7
2018-07-02T00:03:35.961Z,15.7
2018-07-02T00:04:37.574Z,15.7
2018-07-02T00:05:39.194Z,15.6
2018-07-02T00:06:40.806Z,15.6
2018-07-02T00:07:42.419Z,15.5
2018-07-02T00:08:44.028Z,15.5
2018-07-02T00:09:45.640Z,15.5
2018-07-02T00:10:47.255Z,15.4
2018-07-02T00:11:48.865Z,15.5
2018-07-02T00:12:50.480Z,15.5
2018-07-02T00:13:52.098Z,15.4
2018-07-02T00:14:53.710Z,15.4
2018-07-02T00:15:55.327Z,15.4
2018-07-02T00:16:56.939Z,15.5
2018-07-02T00:17:58.551Z,15.3
2018-07-02T00:19:00.170Z,15.4
2018-07-02T00:20:01.785Z,15.5
2018-07-02T00:21:03.405Z,15.4
2018-07-02T00:22:05.017Z,15.5
2018-07-02T00:23:07.435Z,15.5
2018-07-02T00:24:09.044Z,15.4
2018-07-02T00:25:10.678Z,15.4
2018-07-02T00:26:12.273Z,15.5
2018-07-02T00:27:13.889Z,15.4
2018-07-02T00:28:15.507Z,15.5
2018-07-02T00:29:17.117Z,15.5
2018-07-02T00:30:18.736Z,15.5
2018-07-02T00:31:20.346Z,15.4
2018-07-02T00:32:21.967Z,15.5
2018-07-02T00:33:23.575Z,15.6
2018-07-02T00:34:25.187Z,15.5
2018-07-02T00:35:26.805Z,15.5
2018-07-02T00:36:28.413Z,15.4
2018-07-02T00:37:30.031Z,15.5
2018-07-02T00:38:31.646Z,15.4
2018-07-02T00:39:33.260Z,15.4
2018-07-02T00:40:34.874Z,15.4
2018-07-02T00:41:36.487Z,15.3
2018-07-02T00:42:38.143Z,15.3
2018-07-02T00:43:39.717Z,15.3
2018-07-02T00:44:41.330Z,15.3
2018-07-02T00:45:42.943Z,15.3
2018-07-02T00:46:44.563Z,15.3
2018-07-02T00:47:46.173Z,15.2
2018-07-02T00:48:47.788Z,15.2
2018-07-02T00:49:49.402Z,15.3
2018-07-02T00:50:51.022Z,15.1
2018-07-02T00:51:52.629Z,15.1
2018-07-02T00:52:54.242Z,15.0
2018-07-02T00:53:55.864Z,15.1
2018-07-02T00:54:57.478Z,15.0
2018-07-02T00:55:59.095Z,15.2
2018-07-02T00:57:00.705Z,15.1
2018-07-02T00:58:02.315Z,14.9
2018-07-02T00:59:03.929Z,14.9
2018-07-02T01:00:05.542Z,14.9
2018-07-02T01:01:07.152Z,15.0
2018-07-02T01:02:08.770Z,15.0
2018-07-02T01:03:10.388Z,14.9
2018-07-02T01:04:11.999Z,14.9
2018-07-02T01:05:13.621Z,14.9
2018-07-02T01:06:15.226Z,15.0
2018-07-02T01:07:16.840Z,14.9
2018-07-02T01:08:18.455Z,14.7
2018-07-02T01:09:20.064Z,14.9
2018-07-02T01:10:21.683Z,14.8
2018-07-02T01:11:23.299Z,14.9
2018-07-02T01:12:24.915Z,14.9
2018-07-02T01:13:26.525Z,14.9
2018-07-02T01:14:28.139Z,14.9
2018-07-02T01:15:29.757Z,14.9
2018-07-02T01:16:31.368Z,14.9
2018-07-02T01:17:32.981Z,14.9
2018-07-02T01:18:34.598Z,14.8
2018-07-02T01:19:36.208Z,14.8
2018-07-02T01:20:37.822Z,14.7
2018-07-02T01:21:39.439Z,14.8
2018-07-02T01:22:41.050Z,14.6
2018-07-02T01:23:42.672Z,14.7
2018-07-02T01:24:44.283Z,14.8
2018-07-02T01:25:45.902Z,14.8
2018-07-02T01:26:47.513Z,14.7
2018-07-02T01:27:49.123Z,14.8
2018-07-02T01:28:50.739Z,14.8
2018-07-02T01:29:52.348Z,14.7
2018-07-02T01:30:53.974Z,14.8
2018-07-02T01:31:55.584Z,14.7
2018-07-02T01:32:57.200Z,14.6
2018-07-02T01:33:58.816Z,14.7
2018-07-02T01:35:00.425Z,14.6
2018-07-02T01:36:02.036Z,14.6
2018-07-02T01:37:03.653Z,14.6
2018-07-02T01:38:05.265Z,14.6
2018-07-02T01:39:06.883Z,14.5
2018-07-02T01:40:08.501Z,14.5
2018-07-02T01:41:10.109Z,14.5
2018-07-02T01:42:11.725Z,14.4
2018-07-02T01:43:13.341Z,14.6
2018-07-02T01:44:14.956Z,14.5
2018-07-02T01:45:16.567Z,14.5
2018-07-02T01:46:18.181Z,14.5
2018-07-02T01:47:19.797Z,14.5
2018-07-02T01:48:21.407Z,14.5
2018-07-02T01:49:23.018Z,14.5
2018-07-02T01:50:24.636Z,14.6
2018-07-02T01:51:26.248Z,14.5
2018-07-02T01:52:27.867Z,14.6
2018-07-02T01:53:29.476Z,14.5
2018-07-02T01:54:31.089Z,14.6
2018-07-02T01:55:32.707Z,14.5
2018-07-02T01:56:34.314Z,14.5
2018-07-02T01:57:35.931Z,14.4
2018-07-02T01:58:37.542Z,14.4
2018-07-02T01:59:39.160Z,14.4
2018-07-02T02:00:40.777Z,14.5
2018-07-02T02:01:42.394Z,14.4
2018-07-02T02:02:44.002Z,14.3
2018-07-02T02:03:45.614Z,14.2
2018-07-02T02:04:47.229Z,14.3
2018-07-02T02:05:48.840Z,14.3
2018-07-02T02:06:50.458Z,14.4
2018-07-02T02:07:52.068Z,14.3
2018-07-02T02:08:53.685Z,14.3
2018-07-02T02:09:55.294Z,14.1
2018-07-02T02:10:56.904Z,14.2
2018-07-02T02:11:58.521Z,14.3
2018-07-02T02:13:00.130Z,14.2
2018-07-02T02:14:01.749Z,14.2
2018-07-02T02:15:03.358Z,14.1
2018-07-02T02:16:04.979Z,14.1
2018-07-02T02:17:06.590Z,14.2
2018-07-02T02:18:08.208Z,14.1
2018-07-02T02:19:09.816Z,14.0
2018-07-02T02:20:11.427Z,14.0
2018-07-02T02:21:13.046Z,13.9
2018-07-02T02:22:14.657Z,13.9
2018-07-02T02:23:16.276Z,13.9
2018-07-02T02:24:17.884Z,13.9
2018-07-02T02:25:19.503Z,13.9
2018-07-02T02:26:21.112Z,13.8
2018-07-02T02:27:22.725Z,13.8
2018-07-02T02:28:24.341Z,13.9
2018-07-02T02:29:25.955Z,13.8
2018-07-02T02:30:27.571Z,13.7
2018-07-02T02:31:29.185Z,13.7
2018-07-02T02:32:30.795Z,13.7
2018-07-02T02:33:32.406Z,13.7
2018-07-02T02:34:34.025Z,13.7
2018-07-02T02:35:35.633Z,13.6
2018-07-02T02:36:37.255Z,13.6
2018-07-02T02:37:38.867Z,13.6
2018-07-02T02:38:40.477Z,13.6
2018-07-02T02:39:42.086Z,13.5
2018-07-02T02:40:43.702Z,13.6
2018-07-02T02:41:45.312Z,13.5
2018-07-02T02:42:46.930Z,13.6
2018-07-02T02:43:48.551Z,13.5
2018-07-02T02:44:50.161Z,13.6
2018-07-02T02:45:51.778Z,13.7
2018-07-02T02:46:53.386Z,13.5
2018-07-02T02:47:54.999Z,13.6
2018-07-02T02:48:56.611Z,13.5
2018-07-02T02:49:58.228Z,13.6
2018-07-02T02:50:59.842Z,13.6
2018-07-02T02:52:01.454Z,13.5
2018-07-02T02:53:03.072Z,13.5
2018-07-02T02:54:04.682Z,13.5
2018-07-02T02:55:06.300Z,13.5
2018-07-02T02:56:07.909Z,13.4
2018-07-02T02:57:09.527Z,13.4
2018-07-02T02:58:11.140Z,13.5
2018-07-02T02:59:12.761Z,13.5
2018-07-02T03:00:14.383Z,13.4
2018-07-02T03:01:15.982Z,13.5
2018-07-02T03:02:18.180Z,13.3
2018-07-02T03:03:19.796Z,13.4
2018-07-02T03:04:21.412Z,13.4
2018-07-02T03:05:23.587Z,13.5
2018-07-02T03:06:25.822Z,13.4
2018-07-02T03:07:28.010Z,13.3
2018-07-02T03:08:29.623Z,13.3
2018-07-02T03:09:31.236Z,13.3
2018-07-02T03:10:32.856Z,13.4
2018-07-02T03:11:34.466Z,13.4
2018-07-02T03:12:36.096Z,13.2
2018-07-02T03:13:37.704Z,13.3
2018-07-02T03:14:39.318Z,13.3
2018-07-02T03:15:40.936Z,13.2
2018-07-02T03:16:42.551Z,13.1
2018-07-02T03:17:44.170Z,13.0
2018-07-02T03:18:45.788Z,13.1
2018-07-02T03:19:47.400Z,13.0
2018-07-02T03:20:49.015Z,13.0
2018-07-02T03:21:50.633Z,13.0
2018-07-02T03:22:52.252Z,13.0
2018-07-02T03:23:53.861Z,13.1
2018-07-02T03:24:55.478Z,13.0
2018-07-02T03:25:57.091Z,13.0
2018-07-02T03:26:58.709Z,13.0
2018-07-02T03:28:00.332Z,13.0
2018-07-02T03:29:01.946Z,13.0
2018-07-02T03:30:03.562Z,13.0
2018-07-02T03:31:05.179Z,12.9
2018-07-02T03:32:06.794Z,12.9
2018-07-02T03:33:08.411Z,13.0
2018-07-02T03:34:10.025Z,12.9
2018-07-02T03:35:11.646Z,12.9
2018-07-02T03:36:13.262Z,13.0
2018-07-02T03:37:14.882Z,13.1
2018-07-02T03:38:16.494Z,13.0
2018-07-02T03:39:18.112Z,13.0
2018-07-02T03:40:19.730Z,13.0
2018-07-02T03:41:21.342Z,13.1
2018-07-02T03:42:22.963Z,13.0
2018-07-02T03:43:24.578Z,13.0
2018-07-02T03:44:26.191Z,13.0
2018-07-02T03:45:27.810Z,13.1
2018-07-02T03:46:29.424Z,13.0
2018-07-02T03:47:31.040Z,13.0
2018-07-02T03:48:32.664Z,13.0
2018-07-02T03:49:34.283Z,13.1
2018-07-02T03:50:35.893Z,13.0
2018-07-02T03:51:37.511Z,13.0
2018-07-02T03:52:39.123Z,13.0
2018-07-02T03:53:40.741Z,13.1
2018-07-02T03:54:42.373Z,13.0
2018-07-02T03:55:43.994Z,13.0
2018-07-02T03:56:45.609Z,13.2
2018-07-02T03:57:47.224Z,13.1
2018-07-02T03:58:48.842Z,13.1
2018-07-02T03:59:50.456Z,13.2
2018-07-02T04:00:52.075Z,13.1
2018-07-02T04:01:53.696Z,13.2
2018-07-02T04:02:55.313Z,13.2
2018-07-02T04:03:56.933Z,13.3
2018-07-02T04:04:58.546Z,13.3
2018-07-02T04:06:00.168Z,13.4
2018-07-02T04:07:01.786Z,13.3
2018-07-02T04:08:03.398Z,13.2
2018-07-02T04:09:05.025Z,13.2
2018-07-02T04:10:06.640Z,13.3
2018-07-02T04:11:08.263Z,13.3
2018-07-02T04:12:09.936Z,13.3
2018-07-02T04:13:11.499Z,13.2
2018-07-02T04:14:13.111Z,13.3
2018-07-02T04:15:14.732Z,13.2
2018-07-02T04:16:16.352Z,13.2
2018-07-02T04:17:17.967Z,13.3
2018-07-02T04:18:19.592Z,13.3
2018-07-02T04:19:21.206Z,13.4
2018-07-02T04:20:22.822Z,13.4
2018-07-02T04:21:24.446Z,13.3
2018-07-02T04:22:26.066Z,13.4
2018-07-02T04:23:27.678Z,13.4
2018-07-02T04:24:29.296Z,13.5
2018-07-02T04:25:30.920Z,13.4
2018-07-02T04:26:32.532Z,13.4
2018-07-02T04:27:34.155Z,13.4
2018-07-02T04:28:35.768Z,13.5
2018-07-02T04:29:37.386Z,13.5
2018-07-02T04:30:39.005Z,13.5
2018-07-02T04:31:40.622Z,13.6
2018-07-02T04:32:42.281Z,13.6
2018-07-02T04:33:43.858Z,13.5
2018-07-02T04:34:45.477Z,13.5
2018-07-02T04:35:47.095Z,13.6
2018-07-02T04:36:48.720Z,13.6
2018-07-02T04:37:50.333Z,13.5
2018-07-02T04:38:51.953Z,13.5
2018-07-02T04:39:53.569Z,13.7
2018-07-02T04:40:55.188Z,13.5
2018-07-02T04:41:56.808Z,13.5
2018-07-02T04:42:58.424Z,13.6
2018-07-02T04:44:00.044Z,13.7
2018-07-02T04:45:01.664Z,13.7
2018-07-02T04:46:03.280Z,13.7
2018-07-02T04:47:04.902Z,13.7
2018-07-02T04:48:06.520Z,13.7
2018-07-02T04:49:08.134Z,13.7
2018-07-02T04:50:09.751Z,13.8
2018-07-02T04:51:11.426Z,13.9
2018-07-02T04:52:12.990Z,13.7
2018-07-02T04:53:14.618Z,13.9
2018-07-02T04:54:16.192Z,13.9
2018-07-02T04:55:17.800Z,13.9
2018-07-02T04:56:19.423Z,14.0
2018-07-02T04:57:21.038Z,13.8
2018-07-02T04:58:22.662Z,14.0
2018-07-02T04:59:24.285Z,14.0
2018-07-02T05:00:25.906Z,14.0
2018-07-02T05:01:27.528Z,14.0
2018-07-02T05:02:29.139Z,13.8
2018-07-02T05:03:30.754Z,14.0
2018-07-02T05:04:32.378Z,13.9
2018-07-02T05:05:34.087Z,13.9
2018-07-02T05:06:35.612Z,13.9
2018-07-02T05:07:37.244Z,14.0
2018-07-02T05:08:38.854Z,14.0
2018-07-02T05:09:40.472Z,14.0
2018-07-02T05:10:42.088Z,14.0
2018-07-02T05:11:43.725Z,14.0
2018-07-02T05:12:45.348Z,14.1
2018-07-02T05:13:46.963Z,14.0
2018-07-02T05:14:48.586Z,14.0
2018-07-02T05:15:50.202Z,14.2
2018-07-02T05:16:51.826Z,14.2
2018-07-02T05:17:53.437Z,14.3
2018-07-02T05:18:55.054Z,14.2
2018-07-02T05:19:56.679Z,14.5
2018-07-02T05:20:58.292Z,14.5
2018-07-02T05:21:59.913Z,14.7
2018-07-02T05:23:01.573Z,14.9
2018-07-02T05:24:03.243Z,15.1
2018-07-02T05:25:05.152Z,15.1
2018-07-02T05:26:06.743Z,15.1
2018-07-02T05:27:08.388Z,15.1
2018-07-02T05:28:10.001Z,15.1
2018-07-02T05:29:11.632Z,15.1
2018-07-02T05:30:14.514Z,15.1
2018-07-02T05:31:16.103Z,15.1
2018-07-02T05:32:17.721Z,15.2
2018-07-02T05:33:19.341Z,15.3
2018-07-02T05:34:20.964Z,15.3
2018-07-02T05:35:22.589Z,15.5
2018-07-02T05:36:24.980Z,15.7
2018-07-02T05:37:26.601Z,15.9
2018-07-02T05:38:28.220Z,15.9
2018-07-02T05:39:29.834Z,16.0
2018-07-02T05:40:31.458Z,16.0
2018-07-02T05:41:33.074Z,15.9
2018-07-02T05:42:34.695Z,16.2
2018-07-02T05:43:36.318Z,16.3
2018-07-02T05:44:38.078Z,16.3
2018-07-02T05:45:39.552Z,16.3
2018-07-02T05:46:41.169Z,16.3
2018-07-02T05:47:42.790Z,16.5
2018-07-02T05:48:44.405Z,16.5
2018-07-02T05:49:46.032Z,16.6
2018-07-02T05:50:47.650Z,16.5
2018-07-02T05:51:49.266Z,16.6
2018-07-02T05:52:50.887Z,16.6
2018-07-02T05:53:53.482Z,16.6
2018-07-02T05:54:55.103Z,16.6
2018-07-02T05:55:56.718Z,16.5
2018-07-02T05:56:58.337Z,16.6
2018-07-02T05:57:59.961Z,16.6
2018-07-02T05:59:01.583Z,16.6
2018-07-02T06:00:03.235Z,16.7
2018-07-02T06:01:04.821Z,16.8
2018-07-02T06:02:06.435Z,17.0
2018-07-02T06:03:08.053Z,17.0
2018-07-02T06:04:09.679Z,17.2
2018-07-02T06:05:11.302Z,17.3
2018-07-02T06:06:12.923Z,17.3
2018-07-02T06:07:14.541Z,17.5
2018-07-02T06:08:16.161Z,17.5
2018-07-02T06:09:17.773Z,17.4
2018-07-02T06:10:19.394Z,17.7
2018-07-02T06:11:21.019Z,17.8
2018-07-02T06:12:22.634Z,17.7
2018-07-02T06:13:24.256Z,18.0
2018-07-02T06:14:25.884Z,18.2
2018-07-02T06:15:27.515Z,19.2
2018-07-02T06:16:29.154Z,20.2
2018-07-02T06:17:30.766Z,21.6
2018-07-02T06:18:32.393Z,22.9
2018-07-02T06:19:34.018Z,23.9
2018-07-02T06:20:35.638Z,24.5
2018-07-02T06:21:37.256Z,25.2
2018-07-02T06:22:38.880Z,25.8
2018-07-02T06:23:40.501Z,26.4
2018-07-02T06:24:42.154Z,27.1
2018-07-02T06:25:43.744Z,27.7
2018-07-02T06:26:45.364Z,28.3
2018-07-02T06:27:46.988Z,28.7
2018-07-02T06:28:48.612Z,28.9
2018-07-02T06:29:50.234Z,29.1
2018-07-02T06:30:51.856Z,29.5
2018-07-02T06:31:53.484Z,29.8
2018-07-02T06:32:55.104Z,30.3
2018-07-02T06:33:56.727Z,30.9
2018-07-02T06:34:58.358Z,31.3
2018-07-02T06:35:59.977Z,31.7
2018-07-02T06:37:01.608Z,31.8
2018-07-02T06:38:03.231Z,31.6
2018-07-02T06:39:04.860Z,31.5
2018-07-02T06:40:06.490Z,31.7
2018-07-02T06:41:08.118Z,32.1
2018-07-02T06:42:09.747Z,32.6
2018-07-02T06:43:11.365Z,32.9
2018-07-02T06:44:12.996Z,33.2
2018-07-02T06:45:14.618Z,33.4
2018-07-02T06:46:16.244Z,33.4
2018-07-02T06:47:17.878Z,32.4
2018-07-02T06:48:19.499Z,32.9
2018-07-02T06:49:21.135Z,32.8
2018-07-02T06:50:22.768Z,32.7
2018-07-02T06:51:24.396Z,33.3
2018-07-02T06:52:26.030Z,33.8
2018-07-02T06:53:27.650Z,33.4
2018-07-02T06:54:29.285Z,33.5
2018-07-02T06:55:30.913Z,34.1
2018-07-02T06:56:32.547Z,34.4
2018-07-02T06:57:34.176Z,34.7
2018-07-02T06:58:35.850Z,35.0
2018-07-02T06:59:37.446Z,34.7
2018-07-02T07:00:39.075Z,34.2
2018-07-02T07:01:40.703Z,34.2
2018-07-02T07:02:42.340Z,34.8
2018-07-02T07:03:43.967Z,35.1
2018-07-02T07:04:45.597Z,35.4
2018-07-02T07:05:47.233Z,35.5
2018-07-02T07:06:48.864Z,35.6
2018-07-02T07:07:50.493Z,36.0
2018-07-02T07:08:52.127Z,36.2
2018-07-02T07:09:53.762Z,36.8
2018-07-02T07:10:55.400Z,37.3
2018-07-02T07:11:57.032Z,37.4
2018-07-02T07:12:58.663Z,37.1
2018-07-02T07:14:00.302Z,37.1
2018-07-02T07:15:01.935Z,36.9
2018-07-02T07:16:03.569Z,36.5
2018-07-02T07:17:05.204Z,36.6
2018-07-02T07:18:06.844Z,36.0
2018-07-02T07:19:08.476Z,36.0
2018-07-02T07:20:10.105Z,35.3
2018-07-02T07:21:11.741Z,35.7
2018-07-02T07:22:13.375Z,35.2
2018-07-02T07:23:15.016Z,34.2
2018-07-02T07:24:16.647Z,35.0
2018-07-02T07:25:18.298Z,35.3
2018-07-02T07:26:19.929Z,35.6
2018-07-02T07:27:21.560Z,35.7
2018-07-02T07:28:23.191Z,36.1
2018-07-02T07:29:24.825Z,36.2
2018-07-02T07:30:26.463Z,36.0
2018-07-02T07:31:28.098Z,35.4
2018-07-02T07:32:29.738Z,36.1
2018-07-02T07:33:31.376Z,36.2
2018-07-02T07:34:33.007Z,36.9
2018-07-02T07:35:34.644Z,37.0
2018-07-02T07:36:36.277Z,37.2
2018-07-02T07:37:37.920Z,37.1
2018-07-02T07:38:40.458Z,37.0
2018-07-02T07:39:42.096Z,36.4
2018-07-02T07:40:43.724Z,36.5
2018-07-02T07:41:45.362Z,36.3
2018-07-02T07:42:46.996Z,36.0
2018-07-02T07:43:48.640Z,35.8
2018-07-02T07:44:50.295Z,36.7
2018-07-02T07:45:51.914Z,37.4
2018-07-02T07:46:53.546Z,37.6
2018-07-02T07:47:55.175Z,37.4
2018-07-02T07:48:56.813Z,34.9
2018-07-02T07:49:58.446Z,35.3
2018-07-02T07:51:00.087Z,35.8
2018-07-02T07:52:01.725Z,36.6
2018-07-02T07:53:03.358Z,36.8
2018-07-02T07:54:05.001Z,35.2
2018-07-02T07:55:06.634Z,35.3
2018-07-02T07:56:08.275Z,34.3
2018-07-02T07:57:09.903Z,34.6
2018-07-02T07:58:11.542Z,35.7
2018-07-02T07:59:13.182Z,36.6
2018-07-02T08:00:14.815Z,35.5
2018-07-02T08:01:16.458Z,35.5
2018-07-02T08:02:18.095Z,35.6
2018-07-02T08:03:19.728Z,36.1
2018-07-02T08:04:21.361Z,35.9
2018-07-02T08:05:22.999Z,36.0
2018-07-02T08:06:24.634Z,35.9
2018-07-02T08:07:26.272Z,36.2
2018-07-02T08:08:27.911Z,36.6
2018-07-02T08:09:29.539Z,37.3
2018-07-02T08:10:31.235Z,37.4
2018-07-02T08:11:32.816Z,37.3
2018-07-02T08:12:34.450Z,37.7
2018-07-02T08:13:36.091Z,38.0
2018-07-02T08:14:37.733Z,38.1
2018-07-02T08:15:39.369Z,38.2
2018-07-02T08:16:41.007Z,38.4
2018-07-02T08:17:42.643Z,38.9
2018-07-02T08:18:44.279Z,37.2
2018-07-02T08:19:45.916Z,37.5
2018-07-02T08:20:47.554Z,37.7
2018-07-02T08:21:49.190Z,37.4
2018-07-02T08:22:50.828Z,37.3
2018-07-02T08:23:52.469Z,38.1
2018-07-02T08:24:54.103Z,38.6
2018-07-02T08:25:55.748Z,38.7
2018-07-02T08:26:57.389Z,38.8
2018-07-02T08:27:59.021Z,38.1
2018-07-02T08:29:00.666Z,38.6
2018-07-02T08:30:02.303Z,39.0
2018-07-02T08:31:03.942Z,38.9
2018-07-02T08:32:05.583Z,39.2
2018-07-02T08:33:07.249Z,38.7
2018-07-02T08:34:08.855Z,38.6
2018-07-02T08:35:10.495Z,39.0
2018-07-02T08:36:12.139Z,39.0
2018-07-02T08:37:13.780Z,39.9
2018-07-02T08:38:15.418Z,40.8
2018-07-02T08:39:17.059Z,40.9
2018-07-02T08:40:18.695Z,40.7
2018-07-02T08:41:20.356Z,40.9
2018-07-02T08:42:21.978Z,41.4
2018-07-02T08:43:23.618Z,41.9
2018-07-02T08:44:25.263Z,42.4
2018-07-02T08:45:26.903Z,42.6
2018-07-02T08:46:28.537Z,42.4
2018-07-02T08:47:30.179Z,42.4
2018-07-02T08:48:31.831Z,42.7
2018-07-02T08:49:33.472Z,43.3
2018-07-02T08:50:35.109Z,43.8
2018-07-02T08:51:36.756Z,42.8
2018-07-02T08:52:38.424Z,43.3
2018-07-02T08:53:40.032Z,43.2
2018-07-02T08:54:41.674Z,42.5
2018-07-02T08:55:43.310Z,42.3
2018-07-02T08:56:44.957Z,42.0
2018-07-02T08:57:46.594Z,42.2
2018-07-02T08:58:48.241Z,42.1
2018-07-02T08:59:49.875Z,42.2
2018-07-02T09:00:51.521Z,41.3
2018-07-02T09:01:53.166Z,41.7
2018-07-02T09:02:54.807Z,42.3
2018-07-02T09:03:56.451Z,42.7
2018-07-02T09:04:58.090Z,43.2
2018-07-02T09:05:59.738Z,42.6
2018-07-02T09:07:01.377Z,42.4
2018-07-02T09:08:03.021Z,41.9
2018-07-02T09:09:04.654Z,42.5
2018-07-02T09:10:06.295Z,42.2
2018-07-02T09:11:07.942Z,42.4
2018-07-02T09:12:09.583Z,42.1
2018-07-02T09:13:11.238Z,42.4
2018-07-02T09:14:12.881Z,42.7
2018-07-02T09:15:14.527Z,42.9
2018-07-02T09:16:16.390Z,42.6
2018-07-02T09:17:17.814Z,42.3
2018-07-02T09:18:19.453Z,41.4
2018-07-02T09:19:21.103Z,42.3
2018-07-02T09:20:22.750Z,43.1
2018-07-02T09:21:24.391Z,43.3
2018-07-02T09:22:26.031Z,42.8
2018-07-02T09:23:27.678Z,42.5
2018-07-02T09:24:29.319Z,40.5
2018-07-02T09:25:30.967Z,40.8
2018-07-02T09:26:32.617Z,41.6
2018-07-02T09:27:34.256Z,40.8
2018-07-02T09:28:35.904Z,40.1
2018-07-02T09:29:37.546Z,39.2
2018-07-02T09:30:39.191Z,39.2
2018-07-02T09:31:40.835Z,40.0
2018-07-02T09:32:42.483Z,40.7
2018-07-02T09:33:44.123Z,41.1
2018-07-02T09:34:45.763Z,41.8
2018-07-02T09:35:47.414Z,42.2
2018-07-02T09:36:49.053Z,42.0
2018-07-02T09:37:50.696Z,42.5
2018-07-02T09:38:52.336Z,42.6
2018-07-02T09:39:53.983Z,42.8
2018-07-02T09:40:55.630Z,42.9
2018-07-02T09:41:57.269Z,42.2
2018-07-02T09:42:58.910Z,42.5
2018-07-02T09:44:00.549Z,42.1
2018-07-02T09:45:02.190Z,42.2
2018-07-02T09:46:03.839Z,41.8
2018-07-02T09:47:05.481Z,41.7
2018-07-02T09:48:07.129Z,42.3
2018-07-02T09:49:08.771Z,42.2
2018-07-02T09:50:10.416Z,42.7
2018-07-02T09:51:12.057Z,42.6
2018-07-02T09:52:13.708Z,42.3
2018-07-02T09:53:15.350Z,42.6
2018-07-02T09:54:16.988Z,42.4
2018-07-02T09:55:18.631Z,42.7
2018-07-02T09:56:20.278Z,42.4
2018-07-02T09:57:21.916Z,41.6
2018-07-02T09:58:23.564Z,41.1
2018-07-02T09:59:25.210Z,40.9
2018-07-02T10:00:26.850Z,40.6
2018-07-02T10:01:28.498Z,40.9
2018-07-02T10:02:30.134Z,41.4
2018-07-02T10:03:31.785Z,41.7
2018-07-02T10:04:33.420Z,42.5
2018-07-02T10:05:35.065Z,43.2
2018-07-02T10:06:36.718Z,41.8
2018-07-02T10:07:38.347Z,42.3
2018-07-02T10:08:39.992Z,42.1
2018-07-02T10:09:41.636Z,41.8
2018-07-02T10:10:43.278Z,41.2
2018-07-02T10:11:44.924Z,41.7
2018-07-02T10:12:46.562Z,41.8
2018-07-02T10:13:48.202Z,41.8
2018-07-02T10:14:49.845Z,42.2
2018-07-02T10:15:51.484Z,42.3
2018-07-02T10:16:53.131Z,42.1
2018-07-02T10:17:54.779Z,41.7
2018-07-02T10:18:56.416Z,41.4
2018-07-02T10:19:58.061Z,41.6
2018-07-02T10:20:59.705Z,41.5
2018-07-02T10:22:01.343Z,41.6
2018-07-02T10:23:02.994Z,41.7
2018-07-02T10:24:04.637Z,40.8
2018-07-02T10:25:06.284Z,41.2
2018-07-02T10:26:07.927Z,41.4
2018-07-02T10:27:09.569Z,41.3
2018-07-02T10:28:11.213Z,40.9
2018-07-02T10:29:12.873Z,41.3
2018-07-02T10:30:14.500Z,41.6
2018-07-02T10:31:16.183Z,41.9
2018-07-02T10:32:17.787Z,41.7
2018-07-02T10:33:19.430Z,42.2
2018-07-02T10:34:21.075Z,42.0
2018-07-02T10:35:22.722Z,42.2
2018-07-02T10:36:24.370Z,42.6
2018-07-02T10:37:26.005Z,42.8
2018-07-02T10:38:27.653Z,42.9
2018-07-02T10:39:29.295Z,43.1
2018-07-02T10:40:30.932Z,43.2
2018-07-02T10:41:32.582Z,43.1
2018-07-02T10:42:34.219Z,43.2
2018-07-02T10:43:35.860Z,39.9
2018-07-02T10:44:37.510Z,39.5
2018-07-02T10:45:39.153Z,40.5
2018-07-02T10:46:40.808Z,40.1
2018-07-02T10:47:42.449Z,40.1
2018-07-02T10:48:44.092Z,40.4
2018-07-02T10:49:45.736Z,41.2
2018-07-02T10:50:47.375Z,41.0
2018-07-02T10:51:49.024Z,41.0
2018-07-02T10:52:50.670Z,41.3
2018-07-02T10:53:52.317Z,41.1
2018-07-02T10:54:53.964Z,41.3
2018-07-02T10:55:55.600Z,41.4
2018-07-02T10:56:57.242Z,41.9
2018-07-02T10:57:58.887Z,41.7
2018-07-02T10:59:00.526Z,41.7
2018-07-02T11:00:02.169Z,41.6
2018-07-02T11:01:03.819Z,42.1
2018-07-02T11:02:05.459Z,40.4
2018-07-02T11:03:07.102Z,40.9
2018-07-02T11:04:09.510Z,41.5
2018-07-02T11:05:11.151Z,40.6
2018-07-02T11:06:12.800Z,40.9
2018-07-02T11:07:14.439Z,40.4
2018-07-02T11:08:16.090Z,40.9
2018-07-02T11:09:17.732Z,41.6
2018-07-02T11:10:19.377Z,41.8
2018-07-02T11:11:21.056Z,42.1
2018-07-02T11:12:22.668Z,42.1
2018-07-02T11:13:24.303Z,41.8
2018-07-02T11:14:25.953Z,42.5
2018-07-02T11:15:27.596Z,42.8
2018-07-02T11:16:29.238Z,43.1
2018-07-02T11:17:30.883Z,43.4
2018-07-02T11:18:32.529Z,43.5
2018-07-02T11:19:34.171Z,43.1
2018-07-02T11:20:35.817Z,42.7
2018-07-02T11:21:37.465Z,42.1
2018-07-02T11:22:39.103Z,41.0
2018-07-02T11:23:40.786Z,41.2
2018-07-02T11:24:42.390Z,41.8
2018-07-02T11:25:44.035Z,41.5
2018-07-02T11:26:45.677Z,41.4
2018-07-02T11:27:47.320Z,40.0
2018-07-02T11:28:48.970Z,40.0
2018-07-02T11:29:50.629Z,40.4
2018-07-02T11:30:52.263Z,40.7
2018-07-02T11:31:53.914Z,41.4
2018-07-02T11:32:55.548Z,41.4
2018-07-02T11:33:57.189Z,41.8
2018-07-02T11:34:58.840Z,41.9
2018-07-02T11:36:00.482Z,42.4
2018-07-02T11:37:02.131Z,42.7
2018-07-02T11:38:03.774Z,42.6
2018-07-02T11:39:05.415Z,42.6
2018-07-02T11:40:07.067Z,42.3
2018-07-02T11:41:08.701Z,42.1
2018-07-02T11:42:10.348Z,42.3
2018-07-02T11:43:11.989Z,41.5
2018-07-02T11:44:13.651Z,40.2
2018-07-02T11:45:15.274Z,40.4
2018-07-02T11:46:16.915Z,40.6
2018-07-02T11:47:18.563Z,40.6
2018-07-02T11:48:20.204Z,41.3
2018-07-02T11:49:21.851Z,41.2
2018-07-02T11:50:23.503Z,41.1
2018-07-02T11:51:25.140Z,41.4
2018-07-02T11:52:26.779Z,41.7
2018-07-02T11:53:28.425Z,40.6
2018-07-02T11:54:30.064Z,41.3
2018-07-02T11:55:31.711Z,41.4
2018-07-02T11:56:33.355Z,41.8
2018-07-02T11:57:35.000Z,42.1
2018-07-02T11:58:36.647Z,42.6
2018-07-02T11:59:38.292Z,42.6
2018-07-02T12:00:39.935Z,42.9
2018-07-02T12:01:41.578Z,42.4
2018-07-02T12:02:43.218Z,42.5
2018-07-02T12:03:44.864Z,42.3
2018-07-02T12:04:46.514Z,42.5
2018-07-02T12:05:48.152Z,42.5
2018-07-02T12:06:49.793Z,42.3
2018-07-02T12:07:51.448Z,42.2
2018-07-02T12:08:53.086Z,41.9
2018-07-02T12:09:54.791Z,40.5
2018-07-02T12:10:56.376Z,40.7
2018-07-02T12:11:58.016Z,41.0
2018-07-02T12:12:59.660Z,41.7
2018-07-02T12:14:01.305Z,42.1
2018-07-02T12:15:02.951Z,42.3
2018-07-02T12:16:04.593Z,41.1
2018-07-02T12:17:06.233Z,41.2
2018-07-02T12:18:07.874Z,41.7
2018-07-02T12:19:09.515Z,41.8
2018-07-02T12:20:11.164Z,41.9
2018-07-02T12:21:12.798Z,42.1
2018-07-02T12:22:14.447Z,42.6
2018-07-02T12:23:16.091Z,42.8
2018-07-02T12:24:17.733Z,43.3
2018-07-02T12:25:19.371Z,44.0
2018-07-02T12:26:21.028Z,44.2
2018-07-02T12:27:22.657Z,42.7
2018-07-02T12:28:24.301Z,42.1
2018-07-02T12:29:25.945Z,42.2
2018-07-02T12:30:27.587Z,42.4
2018-07-02T12:31:29.230Z,42.7
2018-07-02T12:32:30.870Z,42.7
2018-07-02T12:33:32.575Z,43.2
2018-07-02T12:34:34.160Z,43.3
2018-07-02T12:35:35.803Z,43.6
2018-07-02T12:36:37.442Z,42.7
2018-07-02T12:37:39.089Z,42.5
2018-07-02T12:38:40.728Z,42.7
2018-07-02T12:39:42.371Z,42.8
2018-07-02T12:40:44.011Z,42.6
2018-07-02T12:41:45.658Z,41.8
2018-07-02T12:42:47.297Z,42.1
2018-07-02T12:43:48.940Z,41.3
2018-07-02T12:44:50.580Z,40.9
2018-07-02T12:45:52.220Z,40.7
2018-07-02T12:46:53.867Z,40.8
2018-07-02T12:47:55.515Z,40.9
2018-07-02T12:48:57.147Z,40.9
2018-07-02T12:49:58.793Z,41.1
2018-07-02T12:51:00.429Z,41.5
2018-07-02T12:52:02.072Z,41.8
2018-07-02T12:53:03.709Z,42.3
2018-07-02T12:54:05.413Z,42.5
2018-07-02T12:55:06.995Z,42.6
2018-07-02T12:56:08.640Z,42.8
2018-07-02T12:57:10.274Z,42.7
2018-07-02T12:58:11.922Z,42.8
2018-07-02T12:59:13.559Z,42.3
2018-07-02T13:00:15.198Z,42.2
2018-07-02T13:01:16.843Z,40.8
2018-07-02T13:02:18.549Z,40.8
2018-07-02T13:03:20.085Z,40.9
2018-07-02T13:04:21.779Z,40.9
2018-07-02T13:05:23.367Z,40.7
2018-07-02T13:06:25.003Z,41.2
2018-07-02T13:07:26.646Z,41.5
2018-07-02T13:08:28.290Z,41.8
2018-07-02T13:09:29.928Z,42.0
2018-07-02T13:10:31.568Z,42.3
2018-07-02T13:11:33.205Z,41.8
2018-07-02T13:12:34.846Z,41.5
2018-07-02T13:13:36.532Z,41.3
2018-07-02T13:14:38.121Z,41.1
2018-07-02T13:15:39.764Z,41.1
2018-07-02T13:16:41.404Z,40.7
2018-07-02T13:17:43.049Z,39.4
2018-07-02T13:18:44.692Z,39.7
2018-07-02T13:19:46.387Z,39.9
2018-07-02T13:20:47.963Z,40.2
2018-07-02T13:21:49.604Z,40.7
2018-07-02T13:22:51.245Z,41.0
2018-07-02T13:23:52.881Z,41.1
2018-07-02T13:24:54.526Z,39.6
2018-07-02T13:25:56.158Z,39.9
2018-07-02T13:26:57.869Z,39.7
2018-07-02T13:27:59.441Z,40.1
2018-07-02T13:29:01.083Z,39.9
2018-07-02T13:30:02.738Z,38.8
2018-07-02T13:31:04.362Z,38.9
2018-07-02T13:32:05.999Z,39.4
2018-07-02T13:33:07.636Z,38.4
2018-07-02T13:34:09.275Z,39.2
2018-07-02T13:35:10.910Z,39.6
2018-07-02T13:36:12.645Z,40.2
2018-07-02T13:37:14.191Z,40.6
2018-07-02T13:38:15.831Z,40.9
2018-07-02T13:39:17.476Z,40.8
2018-07-02T13:40:19.107Z,40.8